sensor_id;sensor_type;location;lat;lon;timestamp;temperature;humidity
19868;DHT22;10096;51.112;6.776;2022-08-21T00:01:36;17.20;1.00
19868;DHT22;10096;51.112;6.776;2022-08-21T00:04:06;17.50;99.90
19868;DHT22;10096;51.112;6.776;2022-08-21T00:06:34;17.40;99.90
19868;DHT22;10096;51.112;6.776;2022-08-21T00:09:02;17.30;99.90
19868;DHT22;10096;51.112;6.776;2022-08-21T00:11:29;17.50;99.90
19868;DHT22;10096;51.112;6.776;2022-08-21T00:13:56;17.20;99.90
19868;DHT22;10096;51.112;6.776;2022-08-21T00:16:23;17.30;99.90
19868;DHT22;10096;51.112;6.776;2022-08-21T00:18:50;17.40;99.90
19868;DHT22;10096;51.112;6.776;2022-08-21T00:21:18;17.30;99.90
19868;DHT22;10096;51.112;6.776;2022-08-21T00:23:45;17.10;99.90
19868;DHT22;10096;51.112;6.776;2022-08-21T00:26:12;17.10;99.90
19868;DHT22;10096;51.112;6.776;2022-08-21T00:28:39;17.40;99.90
19868;DHT22;10096;51.112;6.776;2022-08-21T00:31:06;17.10;99.90
19868;DHT22;10096;51.112;6.776;2022-08-21T00:33:33;17.00;99.90
19868;DHT22;10096;51.112;6.776;2022-08-21T00:36:01;17.00;1.00
19868;DHT22;10096;51.112;6.776;2022-08-21T00:38:30;17.00;1.00
19868;DHT22;10096;51.112;6.776;2022-08-21T00:41:00;16.90;1.00
19868;DHT22;10096;51.112;6.776;2022-08-21T00:43:30;17.10;1.00
19868;DHT22;10096;51.112;6.776;2022-08-21T00:45:58;17.10;99.90
19868;DHT22;10096;51.112;6.776;2022-08-21T00:48:26;17.30;1.00
19868;DHT22;10096;51.112;6.776;2022-08-21T00:50:57;17.20;1.00
19868;DHT22;10096;51.112;6.776;2022-08-21T00:53:25;17.50;1.00
19868;DHT22;10096;51.112;6.776;2022-08-21T00:55:55;17.30;1.00
19868;DHT22;10096;51.112;6.776;2022-08-21T00:58:23;17.30;1.00
19868;DHT22;10096;51.112;6.776;2022-08-21T01:00:51;17.30;1.00
19868;DHT22;10096;51.112;6.776;2022-08-21T01:03:22;17.10;1.00
19868;DHT22;10096;51.112;6.776;2022-08-21T01:05:50;16.90;1.00
19868;DHT22;10096;51.112;6.776;2022-08-21T01:08:18;16.90;1.00
19868;DHT22;10096;51.112;6.776;2022-08-21T01:10:46;16.60;1.00
19868;DHT22;10096;51.112;6.776;2022-08-21T01:13:17;16.90;1.00
19868;DHT22;10096;51.112;6.776;2022-08-21T01:15:48;16.60;1.00
19868;DHT22;10096;51.112;6.776;2022-08-21T01:18:17;16.60;1.00
19868;DHT22;10096;51.112;6.776;2022-08-21T01:20:57;16.40;1.00
19868;DHT22;10096;51.112;6.776;2022-08-21T01:23:25;16.40;1.00
19868;DHT22;10096;51.112;6.776;2022-08-21T01:25:51;16.40;1.00
19868;DHT22;10096;51.112;6.776;2022-08-21T01:28:19;16.60;1.00
19868;DHT22;10096;51.112;6.776;2022-08-21T01:30:49;16.40;1.00
19868;DHT22;10096;51.112;6.776;2022-08-21T01:33:17;16.50;1.00
19868;DHT22;10096;51.112;6.776;2022-08-21T01:35:44;16.70;1.00
19868;DHT22;10096;51.112;6.776;2022-08-21T01:38:12;16.60;1.00
19868;DHT22;10096;51.112;6.776;2022-08-21T01:40:39;16.60;1.00
19868;DHT22;10096;51.112;6.776;2022-08-21T01:43:06;16.50;1.00
19868;DHT22;10096;51.112;6.776;2022-08-21T01:45:33;16.50;1.00
19868;DHT22;10096;51.112;6.776;2022-08-21T01:48:00;16.60;1.00
19868;DHT22;10096;51.112;6.776;2022-08-21T01:50:27;16.60;1.00
19868;DHT22;10096;51.112;6.776;2022-08-21T01:52:54;16.50;1.00
19868;DHT22;10096;51.112;6.776;2022-08-21T01:55:23;16.40;1.00
19868;DHT22;10096;51.112;6.776;2022-08-21T01:57:50;16.40;1.00
19868;DHT22;10096;51.112;6.776;2022-08-21T02:00:19;16.30;1.00
19868;DHT22;10096;51.112;6.776;2022-08-21T02:02:48;16.30;1.00
19868;DHT22;10096;51.112;6.776;2022-08-21T02:05:15;16.40;1.00
19868;DHT22;10096;51.112;6.776;2022-08-21T02:07:46;16.40;1.00
19868;DHT22;10096;51.112;6.776;2022-08-21T02:10:16;16.60;1.00
19868;DHT22;10096;51.112;6.776;2022-08-21T02:12:45;16.40;1.00
19868;DHT22;10096;51.112;6.776;2022-08-21T02:15:12;16.30;1.00
19868;DHT22;10096;51.112;6.776;2022-08-21T02:17:41;16.50;1.00
19868;DHT22;10096;51.112;6.776;2022-08-21T02:20:09;16.30;1.00
19868;DHT22;10096;51.112;6.776;2022-08-21T02:22:36;16.40;1.00
19868;DHT22;10096;51.112;6.776;2022-08-21T02:25:03;16.20;1.00
19868;DHT22;10096;51.112;6.776;2022-08-21T02:27:37;16.10;21.60
19868;DHT22;10096;51.112;6.776;2022-08-21T02:30:09;16.30;63.50
19868;DHT22;10096;51.112;6.776;2022-08-21T02:32:36;16.10;82.20
19868;DHT22;10096;51.112;6.776;2022-08-21T02:35:04;16.00;97.60
19868;DHT22;10096;51.112;6.776;2022-08-21T02:37:31;16.10;99.90
19868;DHT22;10096;51.112;6.776;2022-08-21T02:39:59;16.40;68.10
19868;DHT22;10096;51.112;6.776;2022-08-21T02:42:26;16.10;1.00
19868;DHT22;10096;51.112;6.776;2022-08-21T02:44:53;16.20;1.00
19868;DHT22;10096;51.112;6.776;2022-08-21T02:47:21;16.10;1.00
19868;DHT22;10096;51.112;6.776;2022-08-21T02:49:48;16.10;1.00
19868;DHT22;10096;51.112;6.776;2022-08-21T02:52:15;16.00;1.00
19868;DHT22;10096;51.112;6.776;2022-08-21T02:54:42;16.00;1.00
19868;DHT22;10096;51.112;6.776;2022-08-21T02:57:09;16.00;1.00
19868;DHT22;10096;51.112;6.776;2022-08-21T02:59:36;15.90;1.00
19868;DHT22;10096;51.112;6.776;2022-08-21T03:02:03;15.90;1.00
19868;DHT22;10096;51.112;6.776;2022-08-21T03:04:31;16.00;1.00
19868;DHT22;10096;51.112;6.776;2022-08-21T03:06:58;15.90;1.00
19868;DHT22;10096;51.112;6.776;2022-08-21T03:09:25;15.80;1.00
19868;DHT22;10096;51.112;6.776;2022-08-21T03:11:52;15.80;1.00
19868;DHT22;10096;51.112;6.776;2022-08-21T03:14:19;15.60;1.00
19868;DHT22;10096;51.112;6.776;2022-08-21T03:16:46;15.50;1.00
19868;DHT22;10096;51.112;6.776;2022-08-21T03:19:13;15.40;1.00
19868;DHT22;10096;51.112;6.776;2022-08-21T03:21:41;15.40;8.00
19868;DHT22;10096;51.112;6.776;2022-08-21T03:24:08;15.30;1.00
19868;DHT22;10096;51.112;6.776;2022-08-21T03:26:35;15.50;36.30
19868;DHT22;10096;51.112;6.776;2022-08-21T03:29:02;15.50;98.00
19868;DHT22;10096;51.112;6.776;2022-08-21T03:31:46;15.30;99.90
19868;DHT22;10096;51.112;6.776;2022-08-21T03:34:13;15.30;1.00
19868;DHT22;10096;51.112;6.776;2022-08-21T03:36:41;15.20;21.10
19868;DHT22;10096;51.112;6.776;2022-08-21T03:39:08;15.40;99.90
19868;DHT22;10096;51.112;6.776;2022-08-21T03:41:35;15.20;11.00
19868;DHT22;10096;51.112;6.776;2022-08-21T03:44:02;15.30;19.60
19868;DHT22;10096;51.112;6.776;2022-08-21T03:46:29;15.30;99.90
19868;DHT22;10096;51.112;6.776;2022-08-21T03:48:57;15.40;99.90
19868;DHT22;10096;51.112;6.776;2022-08-21T03:51:24;15.50;19.10
19868;DHT22;10096;51.112;6.776;2022-08-21T03:53:54;15.50;24.30
19868;DHT22;10096;51.112;6.776;2022-08-21T03:56:21;15.30;98.80
19868;DHT22;10096;51.112;6.776;2022-08-21T03:58:48;15.40;99.90
19868;DHT22;10096;51.112;6.776;2022-08-21T04:01:15;15.50;99.90
19868;DHT22;10096;51.112;6.776;2022-08-21T04:03:41;15.50;16.90
19868;DHT22;10096;51.112;6.776;2022-08-21T04:06:08;15.70;99.90
19868;DHT22;10096;51.112;6.776;2022-08-21T04:08:35;15.50;99.90
19868;DHT22;10096;51.112;6.776;2022-08-21T04:11:05;15.60;99.90
19868;DHT22;10096;51.112;6.776;2022-08-21T04:13:32;15.70;65.70
19868;DHT22;10096;51.112;6.776;2022-08-21T04:15:59;15.70;13.20
19868;DHT22;10096;51.112;6.776;2022-08-21T04:18:26;15.70;99.90
19868;DHT22;10096;51.112;6.776;2022-08-21T04:20:54;15.70;1.00
19868;DHT22;10096;51.112;6.776;2022-08-21T04:23:22;15.50;1.00
19868;DHT22;10096;51.112;6.776;2022-08-21T04:25:49;15.40;99.90
19868;DHT22;10096;51.112;6.776;2022-08-21T04:28:17;15.50;56.60
19868;DHT22;10096;51.112;6.776;2022-08-21T04:30:44;15.40;92.90
19868;DHT22;10096;51.112;6.776;2022-08-21T04:33:11;15.20;86.20
19868;DHT22;10096;51.112;6.776;2022-08-21T04:35:38;15.40;99.90
19868;DHT22;10096;51.112;6.776;2022-08-21T04:38:05;15.10;99.90
19868;DHT22;10096;51.112;6.776;2022-08-21T04:40:32;15.20;99.90
19868;DHT22;10096;51.112;6.776;2022-08-21T04:43:02;15.30;99.90
19868;DHT22;10096;51.112;6.776;2022-08-21T04:45:33;15.40;99.90
19868;DHT22;10096;51.112;6.776;2022-08-21T04:48:03;15.60;99.90
19868;DHT22;10096;51.112;6.776;2022-08-21T04:50:34;15.70;92.70
19868;DHT22;10096;51.112;6.776;2022-08-21T04:53:03;16.00;1.00
19868;DHT22;10096;51.112;6.776;2022-08-21T04:55:31;16.00;1.00
19868;DHT22;10096;51.112;6.776;2022-08-21T04:57:59;16.20;1.00
19868;DHT22;10096;51.112;6.776;2022-08-21T05:00:27;16.60;1.00
19868;DHT22;10096;51.112;6.776;2022-08-21T05:02:57;17.00;1.00
19868;DHT22;10096;51.112;6.776;2022-08-21T05:05:25;17.30;99.90
19868;DHT22;10096;51.112;6.776;2022-08-21T05:07:54;17.70;99.90
19868;DHT22;10096;51.112;6.776;2022-08-21T05:10:21;18.00;99.90
19868;DHT22;10096;51.112;6.776;2022-08-21T05:12:49;18.30;99.90
19868;DHT22;10096;51.112;6.776;2022-08-21T05:15:16;18.50;99.90
19868;DHT22;10096;51.112;6.776;2022-08-21T05:17:43;18.80;78.00
19868;DHT22;10096;51.112;6.776;2022-08-21T05:20:12;19.30;11.60
19868;DHT22;10096;51.112;6.776;2022-08-21T05:22:40;19.90;1.00
19868;DHT22;10096;51.112;6.776;2022-08-21T05:25:08;20.40;1.00
19868;DHT22;10096;51.112;6.776;2022-08-21T05:27:35;20.90;1.00
19868;DHT22;10096;51.112;6.776;2022-08-21T05:30:03;21.40;1.00
19868;DHT22;10096;51.112;6.776;2022-08-21T05:32:30;21.80;99.90
19868;DHT22;10096;51.112;6.776;2022-08-21T05:34:57;22.30;99.90
19868;DHT22;10096;51.112;6.776;2022-08-21T05:37:25;22.60;99.90
19868;DHT22;10096;51.112;6.776;2022-08-21T05:39:52;22.90;99.90
19868;DHT22;10096;51.112;6.776;2022-08-21T05:42:20;23.30;99.90
19868;DHT22;10096;51.112;6.776;2022-08-21T05:44:46;23.30;99.90
19868;DHT22;10096;51.112;6.776;2022-08-21T05:47:13;23.50;99.90
19868;DHT22;10096;51.112;6.776;2022-08-21T05:49:40;23.90;99.90
19868;DHT22;10096;51.112;6.776;2022-08-21T05:52:07;24.10;99.90
19868;DHT22;10096;51.112;6.776;2022-08-21T05:54:37;24.30;99.90
19868;DHT22;10096;51.112;6.776;2022-08-21T05:57:04;24.50;99.20
19868;DHT22;10096;51.112;6.776;2022-08-21T05:59:31;24.60;1.00
19868;DHT22;10096;51.112;6.776;2022-08-21T06:01:58;24.30;1.00
19868;DHT22;10096;51.112;6.776;2022-08-21T06:04:25;25.00;1.00
19868;DHT22;10096;51.112;6.776;2022-08-21T06:06:52;25.20;1.00
19868;DHT22;10096;51.112;6.776;2022-08-21T06:09:19;25.50;1.00
19868;DHT22;10096;51.112;6.776;2022-08-21T06:11:48;25.90;1.00
19868;DHT22;10096;51.112;6.776;2022-08-21T06:14:15;26.20;1.00
19868;DHT22;10096;51.112;6.776;2022-08-21T06:16:42;26.00;1.00
19868;DHT22;10096;51.112;6.776;2022-08-21T06:19:09;26.40;1.00
19868;DHT22;10096;51.112;6.776;2022-08-21T06:21:37;26.40;1.00
19868;DHT22;10096;51.112;6.776;2022-08-21T06:24:04;26.60;1.00
19868;DHT22;10096;51.112;6.776;2022-08-21T06:26:32;27.20;1.00
19868;DHT22;10096;51.112;6.776;2022-08-21T06:29:00;27.20;1.00
19868;DHT22;10096;51.112;6.776;2022-08-21T06:31:28;27.10;1.00
19868;DHT22;10096;51.112;6.776;2022-08-21T06:33:55;27.80;1.00
19868;DHT22;10096;51.112;6.776;2022-08-21T06:36:23;28.10;1.00
19868;DHT22;10096;51.112;6.776;2022-08-21T06:38:50;28.20;1.00
19868;DHT22;10096;51.112;6.776;2022-08-21T06:41:17;28.30;1.00
19868;DHT22;10096;51.112;6.776;2022-08-21T06:43:44;28.40;1.00
19868;DHT22;10096;51.112;6.776;2022-08-21T06:46:12;28.50;1.00
19868;DHT22;10096;51.112;6.776;2022-08-21T06:48:39;28.90;1.00
19868;DHT22;10096;51.112;6.776;2022-08-21T06:51:06;28.60;1.00
19868;DHT22;10096;51.112;6.776;2022-08-21T06:53:33;28.70;1.00
19868;DHT22;10096;51.112;6.776;2022-08-21T06:56:01;28.80;1.00
19868;DHT22;10096;51.112;6.776;2022-08-21T06:58:31;29.10;1.00
19868;DHT22;10096;51.112;6.776;2022-08-21T07:00:58;29.10;1.00
19868;DHT22;10096;51.112;6.776;2022-08-21T07:03:28;29.70;1.00
19868;DHT22;10096;51.112;6.776;2022-08-21T07:05:56;30.30;1.00
19868;DHT22;10096;51.112;6.776;2022-08-21T07:08:24;30.80;1.00
19868;DHT22;10096;51.112;6.776;2022-08-21T07:10:52;31.00;1.00
19868;DHT22;10096;51.112;6.776;2022-08-21T07:13:19;31.40;1.00
19868;DHT22;10096;51.112;6.776;2022-08-21T07:15:47;31.30;1.00
19868;DHT22;10096;51.112;6.776;2022-08-21T07:18:14;31.50;1.00
19868;DHT22;10096;51.112;6.776;2022-08-21T07:20:43;31.40;1.00
19868;DHT22;10096;51.112;6.776;2022-08-21T07:23:14;31.20;1.00
19868;DHT22;10096;51.112;6.776;2022-08-21T07:25:43;31.10;1.00
19868;DHT22;10096;51.112;6.776;2022-08-21T07:28:11;31.20;1.00
19868;DHT22;10096;51.112;6.776;2022-08-21T07:30:37;31.10;1.00
19868;DHT22;10096;51.112;6.776;2022-08-21T07:33:04;30.40;1.00
19868;DHT22;10096;51.112;6.776;2022-08-21T07:35:31;30.70;1.00
19868;DHT22;10096;51.112;6.776;2022-08-21T07:38:00;30.50;1.00
19868;DHT22;10096;51.112;6.776;2022-08-21T07:40:27;31.10;1.00
19868;DHT22;10096;51.112;6.776;2022-08-21T07:42:54;30.80;1.00
19868;DHT22;10096;51.112;6.776;2022-08-21T07:45:22;31.50;1.00
19868;DHT22;10096;51.112;6.776;2022-08-21T07:47:50;32.00;1.00
19868;DHT22;10096;51.112;6.776;2022-08-21T07:50:18;32.10;1.00
19868;DHT22;10096;51.112;6.776;2022-08-21T07:52:46;32.70;1.00
19868;DHT22;10096;51.112;6.776;2022-08-21T07:55:17;32.80;1.00
19868;DHT22;10096;51.112;6.776;2022-08-21T07:57:45;32.80;1.00
19868;DHT22;10096;51.112;6.776;2022-08-21T08:00:15;33.10;1.00
19868;DHT22;10096;51.112;6.776;2022-08-21T08:02:45;32.30;1.00
19868;DHT22;10096;51.112;6.776;2022-08-21T08:05:15;32.80;1.00
19868;DHT22;10096;51.112;6.776;2022-08-21T08:07:43;33.00;1.00
19868;DHT22;10096;51.112;6.776;2022-08-21T08:10:16;32.80;1.00
19868;DHT22;10096;51.112;6.776;2022-08-21T08:12:44;33.00;1.00
19868;DHT22;10096;51.112;6.776;2022-08-21T08:15:15;33.40;1.00
19868;DHT22;10096;51.112;6.776;2022-08-21T08:17:42;32.90;1.00
19868;DHT22;10096;51.112;6.776;2022-08-21T08:20:12;32.70;1.00
19868;DHT22;10096;51.112;6.776;2022-08-21T08:22:40;33.00;1.00
19868;DHT22;10096;51.112;6.776;2022-08-21T08:25:09;32.60;1.00
19868;DHT22;10096;51.112;6.776;2022-08-21T08:27:38;33.10;1.00
19868;DHT22;10096;51.112;6.776;2022-08-21T08:30:09;33.40;1.00
19868;DHT22;10096;51.112;6.776;2022-08-21T08:32:37;33.30;1.00
19868;DHT22;10096;51.112;6.776;2022-08-21T08:35:06;32.60;1.00
19868;DHT22;10096;51.112;6.776;2022-08-21T08:37:34;32.90;1.00
19868;DHT22;10096;51.112;6.776;2022-08-21T08:40:04;33.10;1.00
19868;DHT22;10096;51.112;6.776;2022-08-21T08:42:32;33.40;1.00
19868;DHT22;10096;51.112;6.776;2022-08-21T08:45:05;33.60;99.90
19868;DHT22;10096;51.112;6.776;2022-08-21T08:47:36;33.60;99.90
19868;DHT22;10096;51.112;6.776;2022-08-21T08:50:06;33.10;99.90
19868;DHT22;10096;51.112;6.776;2022-08-21T08:52:39;32.10;1.00
19868;DHT22;10096;51.112;6.776;2022-08-21T08:55:11;31.80;1.00
19868;DHT22;10096;51.112;6.776;2022-08-21T08:57:43;31.30;1.00
19868;DHT22;10096;51.112;6.776;2022-08-21T09:00:16;31.20;1.00
19868;DHT22;10096;51.112;6.776;2022-08-21T09:02:45;31.00;1.00
19868;DHT22;10096;51.112;6.776;2022-08-21T09:05:19;30.50;1.00
19868;DHT22;10096;51.112;6.776;2022-08-21T09:07:59;29.80;1.00
19868;DHT22;10096;51.112;6.776;2022-08-21T09:10:36;28.80;1.00
19868;DHT22;10096;51.112;6.776;2022-08-21T09:13:12;28.30;1.00
19868;DHT22;10096;51.112;6.776;2022-08-21T09:15:50;28.10;1.00
19868;DHT22;10096;51.112;6.776;2022-08-21T09:18:35;28.00;1.00
19868;DHT22;10096;51.112;6.776;2022-08-21T09:21:13;28.10;1.00
19868;DHT22;10096;51.112;6.776;2022-08-21T09:23:49;28.30;1.00
19868;DHT22;10096;51.112;6.776;2022-08-21T09:26:23;28.40;1.00
19868;DHT22;10096;51.112;6.776;2022-08-21T09:28:52;28.40;1.00
19868;DHT22;10096;51.112;6.776;2022-08-21T09:31:26;28.50;1.00
19868;DHT22;10096;51.112;6.776;2022-08-21T09:34:02;28.10;1.00
19868;DHT22;10096;51.112;6.776;2022-08-21T09:36:36;28.20;1.00
19868;DHT22;10096;51.112;6.776;2022-08-21T09:39:04;28.10;1.00
19868;DHT22;10096;51.112;6.776;2022-08-21T09:41:33;28.30;1.00
19868;DHT22;10096;51.112;6.776;2022-08-21T09:44:01;28.30;1.00
19868;DHT22;10096;51.112;6.776;2022-08-21T09:46:32;28.40;1.00
19868;DHT22;10096;51.112;6.776;2022-08-21T09:49:01;28.60;1.00
19868;DHT22;10096;51.112;6.776;2022-08-21T09:51:31;28.40;1.00
19868;DHT22;10096;51.112;6.776;2022-08-21T09:54:14;28.00;1.00
19868;DHT22;10096;51.112;6.776;2022-08-21T09:56:52;27.80;1.00
19868;DHT22;10096;51.112;6.776;2022-08-21T09:59:37;27.50;1.00
19868;DHT22;10096;51.112;6.776;2022-08-21T10:02:26;27.40;1.00
19868;DHT22;10096;51.112;6.776;2022-08-21T10:04:55;27.60;1.00
19868;DHT22;10096;51.112;6.776;2022-08-21T10:07:25;27.60;1.00
19868;DHT22;10096;51.112;6.776;2022-08-21T10:10:00;27.80;1.00
19868;DHT22;10096;51.112;6.776;2022-08-21T10:12:35;27.80;1.00
19868;DHT22;10096;51.112;6.776;2022-08-21T10:15:13;27.60;1.00
19868;DHT22;10096;51.112;6.776;2022-08-21T10:17:58;27.80;1.00
19868;DHT22;10096;51.112;6.776;2022-08-21T10:20:30;27.80;1.00
19868;DHT22;10096;51.112;6.776;2022-08-21T10:23:12;27.40;1.00
19868;DHT22;10096;51.112;6.776;2022-08-21T10:25:48;27.70;1.00
19868;DHT22;10096;51.112;6.776;2022-08-21T10:28:23;27.10;1.00
19868;DHT22;10096;51.112;6.776;2022-08-21T10:31:13;26.90;1.00
19868;DHT22;10096;51.112;6.776;2022-08-21T10:33:49;27.20;1.00
19868;DHT22;10096;51.112;6.776;2022-08-21T10:36:23;27.30;1.00
19868;DHT22;10096;51.112;6.776;2022-08-21T10:39:03;27.10;1.00
19868;DHT22;10096;51.112;6.776;2022-08-21T10:41:52;26.70;1.00
19868;DHT22;10096;51.112;6.776;2022-08-21T10:44:28;26.90;1.00
19868;DHT22;10096;51.112;6.776;2022-08-21T10:47:01;27.40;1.00
19868;DHT22;10096;51.112;6.776;2022-08-21T10:49:39;27.50;1.00
19868;DHT22;10096;51.112;6.776;2022-08-21T10:52:32;27.60;1.00
19868;DHT22;10096;51.112;6.776;2022-08-21T10:55:06;27.90;1.00
19868;DHT22;10096;51.112;6.776;2022-08-21T10:57:41;28.00;1.00
19868;DHT22;10096;51.112;6.776;2022-08-21T11:00:14;27.80;1.00
19868;DHT22;10096;51.112;6.776;2022-08-21T11:02:46;27.80;1.00
19868;DHT22;10096;51.112;6.776;2022-08-21T11:05:20;28.00;1.00
19868;DHT22;10096;51.112;6.776;2022-08-21T11:07:54;28.00;1.00
19868;DHT22;10096;51.112;6.776;2022-08-21T11:10:24;27.60;1.00
19868;DHT22;10096;51.112;6.776;2022-08-21T11:12:54;27.60;1.00
19868;DHT22;10096;51.112;6.776;2022-08-21T11:15:31;27.80;1.00
19868;DHT22;10096;51.112;6.776;2022-08-21T11:18:07;27.20;1.00
19868;DHT22;10096;51.112;6.776;2022-08-21T11:20:42;27.10;1.00
19868;DHT22;10096;51.112;6.776;2022-08-21T11:23:16;27.30;1.00
19868;DHT22;10096;51.112;6.776;2022-08-21T11:25:47;27.30;1.00
19868;DHT22;10096;51.112;6.776;2022-08-21T11:28:18;27.20;1.00
19868;DHT22;10096;51.112;6.776;2022-08-21T11:30:56;27.40;1.00
19868;DHT22;10096;51.112;6.776;2022-08-21T11:33:34;27.40;1.00
19868;DHT22;10096;51.112;6.776;2022-08-21T11:36:11;27.40;1.00
19868;DHT22;10096;51.112;6.776;2022-08-21T11:38:45;27.80;1.00
19868;DHT22;10096;51.112;6.776;2022-08-21T11:41:23;27.90;1.00
19868;DHT22;10096;51.112;6.776;2022-08-21T11:43:59;27.80;1.00
19868;DHT22;10096;51.112;6.776;2022-08-21T11:46:36;28.40;1.00
19868;DHT22;10096;51.112;6.776;2022-08-21T11:49:25;28.50;1.00
19868;DHT22;10096;51.112;6.776;2022-08-21T11:52:01;28.40;1.00
19868;DHT22;10096;51.112;6.776;2022-08-21T11:54:37;28.40;1.00
19868;DHT22;10096;51.112;6.776;2022-08-21T11:57:08;28.50;1.00
19868;DHT22;10096;51.112;6.776;2022-08-21T11:59:43;28.10;1.00
19868;DHT22;10096;51.112;6.776;2022-08-21T12:02:14;28.30;1.00
19868;DHT22;10096;51.112;6.776;2022-08-21T12:04:45;27.90;1.00
19868;DHT22;10096;51.112;6.776;2022-08-21T12:07:27;27.80;1.00
19868;DHT22;10096;51.112;6.776;2022-08-21T12:09:56;28.00;1.00
19868;DHT22;10096;51.112;6.776;2022-08-21T12:12:25;28.30;1.00
19868;DHT22;10096;51.112;6.776;2022-08-21T12:15:14;28.50;1.00
19868;DHT22;10096;51.112;6.776;2022-08-21T12:17:53;28.50;1.00
19868;DHT22;10096;51.112;6.776;2022-08-21T12:20:37;28.40;1.00
19868;DHT22;10096;51.112;6.776;2022-08-21T12:23:26;28.10;1.00
19868;DHT22;10096;51.112;6.776;2022-08-21T12:26:09;27.90;1.00
19868;DHT22;10096;51.112;6.776;2022-08-21T12:28:37;28.20;1.00
19868;DHT22;10096;51.112;6.776;2022-08-21T12:31:17;28.10;1.00
19868;DHT22;10096;51.112;6.776;2022-08-21T12:33:52;28.00;1.00
19868;DHT22;10096;51.112;6.776;2022-08-21T12:36:23;28.10;1.00
19868;DHT22;10096;51.112;6.776;2022-08-21T12:38:57;28.10;1.00
19868;DHT22;10096;51.112;6.776;2022-08-21T12:41:28;28.00;1.00
19868;DHT22;10096;51.112;6.776;2022-08-21T12:43:59;28.20;1.00
19868;DHT22;10096;51.112;6.776;2022-08-21T12:46:34;27.70;1.00
19868;DHT22;10096;51.112;6.776;2022-08-21T12:49:07;27.70;1.00
19868;DHT22;10096;51.112;6.776;2022-08-21T12:51:46;27.80;1.00
19868;DHT22;10096;51.112;6.776;2022-08-21T12:54:27;27.80;1.00
19868;DHT22;10096;51.112;6.776;2022-08-21T12:56:59;28.20;1.00
19868;DHT22;10096;51.112;6.776;2022-08-21T12:59:28;28.00;1.00
19868;DHT22;10096;51.112;6.776;2022-08-21T13:01:57;28.10;1.00
19868;DHT22;10096;51.112;6.776;2022-08-21T13:04:33;28.60;99.90
19868;DHT22;10096;51.112;6.776;2022-08-21T13:07:06;28.50;99.90
19868;DHT22;10096;51.112;6.776;2022-08-21T13:09:53;28.60;1.00
19868;DHT22;10096;51.112;6.776;2022-08-21T13:12:23;28.30;1.00
19868;DHT22;10096;51.112;6.776;2022-08-21T13:14:54;28.20;1.00
19868;DHT22;10096;51.112;6.776;2022-08-21T13:17:24;28.30;99.90
19868;DHT22;10096;51.112;6.776;2022-08-21T13:19:56;28.60;1.00
19868;DHT22;10096;51.112;6.776;2022-08-21T13:22:24;28.50;99.90
19868;DHT22;10096;51.112;6.776;2022-08-21T13:24:54;28.50;99.90
19868;DHT22;10096;51.112;6.776;2022-08-21T13:27:24;28.50;1.00
19868;DHT22;10096;51.112;6.776;2022-08-21T13:30:08;28.30;99.90
19868;DHT22;10096;51.112;6.776;2022-08-21T13:32:40;28.20;99.90
19868;DHT22;10096;51.112;6.776;2022-08-21T13:35:15;28.20;99.90
19868;DHT22;10096;51.112;6.776;2022-08-21T13:37:43;27.90;99.90
19868;DHT22;10096;51.112;6.776;2022-08-21T13:40:16;27.80;99.90
19868;DHT22;10096;51.112;6.776;2022-08-21T13:42:45;28.30;99.90
19868;DHT22;10096;51.112;6.776;2022-08-21T13:45:16;28.40;99.90
19868;DHT22;10096;51.112;6.776;2022-08-21T13:47:45;28.50;99.90
19868;DHT22;10096;51.112;6.776;2022-08-21T13:50:15;28.50;99.90
19868;DHT22;10096;51.112;6.776;2022-08-21T13:52:49;28.50;99.90
19868;DHT22;10096;51.112;6.776;2022-08-21T13:55:18;28.60;99.90
19868;DHT22;10096;51.112;6.776;2022-08-21T13:57:46;28.60;99.90
19868;DHT22;10096;51.112;6.776;2022-08-21T14:00:16;28.50;99.90
19868;DHT22;10096;51.112;6.776;2022-08-21T14:02:45;28.60;99.90
19868;DHT22;10096;51.112;6.776;2022-08-21T14:05:20;28.50;99.90
19868;DHT22;10096;51.112;6.776;2022-08-21T14:07:50;28.40;99.90
19868;DHT22;10096;51.112;6.776;2022-08-21T14:10:22;28.30;99.90
19868;DHT22;10096;51.112;6.776;2022-08-21T14:12:56;28.20;99.90
19868;DHT22;10096;51.112;6.776;2022-08-21T14:15:25;28.20;99.90
19868;DHT22;10096;51.112;6.776;2022-08-21T14:17:54;28.30;99.90
19868;DHT22;10096;51.112;6.776;2022-08-21T14:20:29;28.40;99.90
19868;DHT22;10096;51.112;6.776;2022-08-21T14:22:57;28.50;99.90
19868;DHT22;10096;51.112;6.776;2022-08-21T14:25:40;28.60;99.90
19868;DHT22;10096;51.112;6.776;2022-08-21T14:28:15;28.60;99.90
19868;DHT22;10096;51.112;6.776;2022-08-21T14:30:45;28.40;99.90
19868;DHT22;10096;51.112;6.776;2022-08-21T14:33:20;28.30;99.90
19868;DHT22;10096;51.112;6.776;2022-08-21T14:35:49;28.10;99.90
19868;DHT22;10096;51.112;6.776;2022-08-21T14:38:18;28.10;99.90
19868;DHT22;10096;51.112;6.776;2022-08-21T14:40:51;28.00;99.90
19868;DHT22;10096;51.112;6.776;2022-08-21T14:43:20;27.90;99.90
19868;DHT22;10096;51.112;6.776;2022-08-21T14:45:48;27.80;99.90
19868;DHT22;10096;51.112;6.776;2022-08-21T14:48:15;27.70;99.90
19868;DHT22;10096;51.112;6.776;2022-08-21T14:50:42;27.60;99.90
19868;DHT22;10096;51.112;6.776;2022-08-21T14:53:10;27.60;99.90
19868;DHT22;10096;51.112;6.776;2022-08-21T14:55:38;27.40;99.90
19868;DHT22;10096;51.112;6.776;2022-08-21T14:58:22;27.60;99.90
19868;DHT22;10096;51.112;6.776;2022-08-21T15:00:50;27.90;99.90
19868;DHT22;10096;51.112;6.776;2022-08-21T15:03:18;28.00;99.90
19868;DHT22;10096;51.112;6.776;2022-08-21T15:05:46;27.70;99.90
19868;DHT22;10096;51.112;6.776;2022-08-21T15:08:13;27.70;99.90
19868;DHT22;10096;51.112;6.776;2022-08-21T15:10:40;27.70;99.90
19868;DHT22;10096;51.112;6.776;2022-08-21T15:13:08;27.80;99.90
19868;DHT22;10096;51.112;6.776;2022-08-21T15:15:40;27.50;99.90
19868;DHT22;10096;51.112;6.776;2022-08-21T15:18:08;27.40;99.90
19868;DHT22;10096;51.112;6.776;2022-08-21T15:20:36;27.50;99.90
19868;DHT22;10096;51.112;6.776;2022-08-21T15:23:03;27.60;99.90
19868;DHT22;10096;51.112;6.776;2022-08-21T15:25:31;27.60;99.90
19868;DHT22;10096;51.112;6.776;2022-08-21T15:27:58;27.60;99.90
19868;DHT22;10096;51.112;6.776;2022-08-21T15:30:27;27.40;99.90
19868;DHT22;10096;51.112;6.776;2022-08-21T15:32:57;27.40;99.90
19868;DHT22;10096;51.112;6.776;2022-08-21T15:35:25;27.40;99.90
19868;DHT22;10096;51.112;6.776;2022-08-21T15:37:52;27.30;99.90
19868;DHT22;10096;51.112;6.776;2022-08-21T15:40:19;27.30;99.90
19868;DHT22;10096;51.112;6.776;2022-08-21T15:42:46;27.10;99.90
19868;DHT22;10096;51.112;6.776;2022-08-21T15:45:13;27.20;99.90
19868;DHT22;10096;51.112;6.776;2022-08-21T15:47:43;27.10;99.90
19868;DHT22;10096;51.112;6.776;2022-08-21T15:50:13;27.10;99.90
19868;DHT22;10096;51.112;6.776;2022-08-21T15:52:40;27.20;99.90
19868;DHT22;10096;51.112;6.776;2022-08-21T15:55:08;27.20;99.90
19868;DHT22;10096;51.112;6.776;2022-08-21T15:57:38;27.20;99.90
19868;DHT22;10096;51.112;6.776;2022-08-21T16:00:13;27.20;99.90